Terminal Aerodrome Forecast
Issued by NWS

Home | Current Version | Previous Version | Text Only | Print | Product List | Glossary On
Versions: 1 2 3 4 5 6 7 8 9 10 11 12 13 14 15 16 17 18 19 20 21 22 23
123
FTUS45 KGJT 191131
TAFEGE
TAF
KEGE 191131Z 1912/2012 00000KT P6SM FEW250
     FM191800 24006KT P6SM SCT150 SCT250
     FM192100 24012G22KT P6SM BKN150
     FM200200 13006KT P6SM SCT120 BKN150
     FM200600 11006KT P6SM BKN100
      AMD LTD TO CLD VIS AND WIND TIL 191400=

USA.gov is the U.S. government's official web portal to all federal, state and local government web resources and services.